Flight Track Log - Related Links

Times and Time Zones

All times are in EDT time to prevent confusion due to time zone crossing. See the EJA331P flight status page for this flight to view local times or setup timezone preferences in your user account.

Time Position Orientation Groundspeed Altitude Reporting Facility
EDT Latitude Longitude Course Direction KTS MPH feet Rate Location/Type
Wed 04:46:00 PM 33.9068 -116.2708 17° North 272 313 12,300  Level FlightAware ADS-B (KBNG)
Wed 04:46:38 PM 33.9536 -116.2533 17° North 287 330 13,000 1,500 Climbing Los Angeles Center
Wed 04:47:40 PM 34.0061 -116.1414 60° Northeast 384 442 14,800 2,736 Climbing Los Angeles Center
Wed 04:48:43 PM 34.0428 -116.0167 70° East 395 455 18,700 2,631 Climbing Los Angeles Center
Wed 04:50:47 PM 34.1097 -115.7758 49° Northeast 385 443 23,000 1,419 Climbing Los Angeles Center
Wed 04:51:49 PM 34.1094 -115.5867 90° East 461 531 23,100 1,403 Climbing Los Angeles Center
Wed 04:52:51 PM 34.1181 -115.4364 86° East 453 521 25,900 2,516 Climbing Los Angeles Center
Wed 04:53:53 PM 34.1856 -115.3119 57° Northeast 442 509 28,300 2,112 Climbing Los Angeles Center
Wed 04:54:56 PM 34.2497 -115.1822 59° Northeast 446 513 30,300 1,920 Climbing Los Angeles Center
Wed 04:55:58 PM 34.3167 -115.0489 59° Northeast 460 529 32,300 1,935 Climbing Los Angeles Center
Wed 04:57:00 PM 34.3839 -114.9156 59° Northeast 465 535 34,300 1,790 Climbing Los Angeles Center
Wed 04:58:02 PM 34.4639 -114.7564 59° Northeast 461 531 36,000 1,258 Climbing Los Angeles Center
Wed 04:59:04 PM 34.5311 -114.6225 59° Northeast 463 533 36,900 1,355 Climbing Los Angeles Center
Wed 05:00:06 PM 34.5975 -114.4872 59° Northeast 469 540 38,800 1,694 Climbing Los Angeles Center
Wed 05:01:08 PM 34.6694 -114.3442 59° Northeast 446 513 40,400 1,065 Climbing Los Angeles Center
Wed 05:02:10 PM 34.7311 -114.2178 59° Northeast 438 504 41,000 288 Climbing Los Angeles Center
Wed 05:03:13 PM 34.7953 -114.0847 60° Northeast 449 517 41,000  Level Los Angeles Center
Wed 05:04:15 PM 34.8703 -113.9342 59° Northeast 478 550 41,000  Level Los Angeles Center
Wed 05:10:09 PM 35.2018 -113.2484 61° Northeast 488 562 41,000  Level FlightAware ADS-B
Wed 05:11:38 PM 35.3865 -112.8600 60° Northeast 494 568 41,000  Level FlightAware ADS-B
Wed 05:12:08 PM 35.4164 -112.7966 60° Northeast 493 567 41,000  Level FlightAware ADS-B
Wed 05:12:40 PM 35.4566 -112.7114 60° Northeast 491 565 41,000  Level FlightAware ADS-B
Wed 05:13:20 PM 35.5021 -112.6148 60° Northeast 491 565 41,000  Level FlightAware ADS-B
Wed 05:14:05 PM 35.5372 -112.5381 60° Northeast 491 565 41,000  Level Albuquerque Center
Wed 05:14:36 PM 35.5772 -112.4514 60° Northeast 491 565 41,000  Level Los Angeles Center
Wed 05:15:38 PM 35.6444 -112.3067 60° Northeast 490 564 41,000  Level Los Angeles Center
Wed 05:16:41 PM 35.7142 -112.1639 59° Northeast 489 563 41,000  Level Los Angeles Center
Wed 05:17:43 PM 35.7933 -111.9906 61° Northeast 488 562 41,000  Level Los Angeles Center
Wed 05:19:26 PM 35.8992 -111.7522 61° Northeast 490 564 41,000  Level Denver Center
Wed 05:25:27 PM 36.4786 -111.0596 34° Northeast 475 547 41,000  Level FlightAware ADS-B (KGUC)
Wed 05:27:51 PM 36.7393 -110.8392 34° Northeast 475 547 41,000  Level FlightAware ADS-B (KGUC)
Wed 05:29:10 PM 36.8839 -110.7163 34° Northeast 474 545 41,000  Level FlightAware ADS-B (KGUC)
Wed 05:29:58 PM 36.9702 -110.6426 34° Northeast 474 545 41,000  Level FlightAware ADS-B (KGUC)
Wed 05:31:52 PM 37.1763 -110.4658 35° Northeast 473 544 41,000  Level FlightAware ADS-B (KGUC)
Wed 05:33:43 PM 37.3756 -110.2937 35° Northeast 473 544 41,000  Level FlightAware ADS-B
Wed 05:34:14 PM 37.4326 -110.2443 35° Northeast 473 544 41,000  Level FlightAware ADS-B
Wed 05:34:44 PM 37.4863 -110.1977 35° Northeast 473 544 41,000  Level FlightAware ADS-B (KGUC)
Wed 05:35:37 PM 37.5808 -110.1153 35° Northeast 472 543 41,000  Level FlightAware ADS-B (KGUC)
Wed 05:36:08 PM 37.6315 -110.0710 35° Northeast 471 542 41,000  Level FlightAware ADS-B
Wed 05:36:46 PM 37.7045 -110.0073 35° Northeast 471 542 41,000  Level FlightAware ADS-B
Wed 05:37:16 PM 37.7516 -109.9660 35° Northeast 471 542 41,000  Level FlightAware ADS-B
Wed 05:37:46 PM 37.8108 -109.9140 35° Northeast 471 542 41,000  Level FlightAware ADS-B
Wed 05:38:25 PM 37.8684 -109.8634 35° Northeast 470 541 41,000  Level FlightAware ADS-B
Wed 05:39:07 PM 37.9572 -109.7850 35° Northeast 469 540 41,000  Level FlightAware ADS-B (KGUC)
Wed 05:39:37 PM 38.0104 -109.7381 35° Northeast 469 540 41,000  Level FlightAware ADS-B (KGUC)
Wed 05:40:07 PM 38.0639 -109.6907 35° Northeast 468 539 41,000  Level FlightAware ADS-B (KGUC)
Wed 05:40:37 PM 38.1140 -109.6461 35° Northeast 467 537 41,000  Level FlightAware ADS-B (KGUC)
Wed 05:41:07 PM 38.1701 -109.5963 35° Northeast 466 536 41,000  Level FlightAware ADS-B (KGUC)
Wed 05:41:37 PM 38.2211 -109.5508 35° Northeast 466 536 41,000  Level FlightAware ADS-B (KGUC)
Wed 05:42:07 PM 38.2745 -109.5032 35° Northeast 465 535 41,000  Level FlightAware ADS-B (KGUC)
Wed 05:42:37 PM 38.3269 -109.4564 35° Northeast 464 534 41,000  Level FlightAware ADS-B
Wed 05:43:07 PM 38.3811 -109.4078 35° Northeast 464 534 41,000  Level FlightAware ADS-B (KGUC)
Wed 05:43:38 PM 38.4339 -109.3606 35° Northeast 464 534 41,000  Level FlightAware ADS-B (KGUC)
Wed 05:44:08 PM 38.4867 -109.3132 35° Northeast 464 534 41,000  Level FlightAware ADS-B (KGUC)
Wed 05:44:41 PM 38.5462 -109.2605 35° Northeast 464 534 41,000  Level FlightAware ADS-B
Wed 05:45:16 PM 38.6081 -109.2056 35° Northeast 466 536 41,000  Level FlightAware ADS-B (KGUC)
Wed 05:45:58 PM 38.6808 -109.1411 35° Northeast 466 536 41,000  Level FlightAware ADS-B (KGUC)
Wed 05:46:35 PM 38.7470 -109.0826 35° Northeast 466 536 41,000  Level FlightAware ADS-B
Wed 05:47:06 PM 38.8022 -109.0336 35° Northeast 466 536 41,000 -290 Level FlightAware ADS-B
Wed 05:47:37 PM 38.8568 -108.9835 36° Northeast 474 545 40,700 -774 Descending FlightAware ADS-B
Wed 05:48:08 PM 38.9117 -108.9318 36° Northeast 477 549 40,200 -984 Descending FlightAware ADS-B
Wed 05:48:38 PM 38.9645 -108.8819 36° Northeast 476 548 39,700 -952 Descending FlightAware ADS-B
Wed 05:49:11 PM 39.0225 -108.8273 36° Northeast 459 528 39,200 -1,377 Descending FlightAware ADS-B
Wed 05:49:39 PM 39.0662 -108.7765 49° Northeast 462 532 38,300 -2,154 Descending FlightAware ADS-B (KGUC)
Wed 05:49:50 PM 39.0816 -108.7507 55° Northeast 465 535 37,800 -2,455 Descending FlightAware ADS-B
Wed 05:50:23 PM 39.1191 -108.6758 57° Northeast 461 531 36,500 -2,381 Descending FlightAware ADS-B
Wed 05:50:53 PM 39.1542 -108.6083 56° Northeast 453 521 35,300 -1,475 Descending FlightAware ADS-B
Wed 05:51:24 PM 39.1898 -108.5399 56° Northeast 444 511 35,000 -295 Descending FlightAware ADS-B
Wed 05:51:54 PM 39.2238 -108.4739 57° Northeast 441 507 35,000  Level FlightAware ADS-B
Wed 05:52:27 PM 39.2618 -108.3998 57° Northeast 436 502 35,000  Level FlightAware ADS-B
Wed 05:52:57 PM 39.2950 -108.3347 57° Northeast 432 497 35,000  Level FlightAware ADS-B
Wed 05:53:28 PM 39.3287 -108.2689 57° Northeast 430 495 35,000  Level FlightAware ADS-B (KGUC)
Wed 05:53:59 PM 39.3596 -108.2081 57° Northeast 428 493 35,000  Level FlightAware ADS-B (KGUC)
Wed 05:54:29 PM 39.3939 -108.1407 57° Northeast 427 491 35,000  Level FlightAware ADS-B (KGUC)
Wed 05:55:09 PM 39.4375 -108.0546 57° Northeast 426 490 35,000  Level FlightAware ADS-B (KGUC)
Wed 05:55:42 PM 39.4730 -107.9845 57° Northeast 426 490 35,000 -92 Level FlightAware ADS-B
Wed 05:56:14 PM 39.5078 -107.9154 57° Northeast 428 493 34,900 -358 Descending FlightAware ADS-B
Wed 05:56:49 PM 39.5458 -107.8400 57° Northeast 434 499 34,600 -740 Descending FlightAware ADS-B
Wed 05:57:27 PM 39.5860 -107.7598 57° Northeast 411 473 34,000 -1,059 Descending FlightAware ADS-B
Wed 05:57:57 PM 39.6168 -107.6985 57° Northeast 393 452 33,400 -1,935 Descending FlightAware ADS-B
Wed 05:58:29 PM 39.6486 -107.6349 57° Northeast 362 417 32,000 -2,710 Descending FlightAware ADS-B
Wed 05:58:59 PM 39.6732 -107.5857 57° Northeast 364 419 30,600 -2,400 Descending FlightAware ADS-B (KGUC)
Wed 05:59:29 PM 39.7023 -107.5273 57° Northeast 360 414 29,600 -1,905 Descending FlightAware ADS-B (KGUC)
Wed 06:00:02 PM 39.7311 -107.4693 57° Northeast 344 396 28,600 -1,810 Descending FlightAware ADS-B
Wed 06:00:32 PM 39.7559 -107.4199 53° Northeast 330 380 27,700 -2,045 Descending FlightAware ADS-B
Wed 06:00:46 PM 39.7704 -107.3994 42° Northeast 327 376 27,100 -2,267 Descending FlightAware ADS-B (KGUC)
Wed 06:01:17 PM 39.8093 -107.3611 37° Northeast 317 365 26,000 -2,148 Descending FlightAware ADS-B
Wed 06:02:07 PM 39.8623 -107.3073 38° Northeast 303 349 24,200 -2,204 Descending FlightAware ADS-B (KGUC)
Wed 06:02:55 PM 39.8687 -107.3006 39° Northeast 302 348 22,400 -2,000 Descending FlightAware ADS-B (KGUC)
Wed 06:04:22 PM 39.9953 -107.1667 39° Northeast 297 342 19,700 -1,796 Descending Denver Center
Wed 06:05:22 PM 40.0583 -107.0983 40° Northeast 294 338 18,000 -829 Descending Denver Center
Wed 06:06:25 PM 40.1178 -107.0328 40° Northeast 284 327 18,000  Level Denver Center
Wed 06:07:27 PM 40.1792 -106.9669 39° Northeast 284 327 18,000  Level Denver Center
Wed 06:08:27 PM 40.2528 -106.8842 41° Northeast 283 326 18,000  Level Denver Center
Wed 06:09:31 PM 40.2486 -106.7825 93° East 296 341 18,000  Level Denver Center
Wed 06:10:32 PM 40.2339 -106.6783 100° East 292 336 18,000  Level Denver Center
Wed 06:11:36 PM 40.2200 -106.5731 100° East 292 336 18,000  Level Denver Center
Wed 06:12:36 PM 40.2064 -106.4669 100° East 293 337 18,000 -290 Level Denver Center
Wed 06:13:40 PM 40.1453 -106.4153 147° Southeast 296 341 17,400 -693 Descending Denver Center
Wed 06:19:40 PM 39.7384 -106.5536 198° South 216 249 13,100 -708 Descending FlightAware ADS-B
Wed 06:20:10 PM 39.7110 -106.5665 205° Southwest 204 235 12,800 -750 Descending FlightAware ADS-B
Wed 06:20:28 PM 39.6993 -106.5793 231° Southwest 196 226 12,500 -968 Descending FlightAware ADS-B
Wed 06:20:41 PM 39.6922 -106.5928 242° Southwest 198 228 12,300 -1,043 Descending FlightAware ADS-B
Wed 06:20:51 PM 39.6887 -106.6040 252° West 195 224 12,100 -1,742 Descending FlightAware ADS-B
Wed 06:21:12 PM 39.6854 -106.6272 259° West 165 190 11,400 -1,220 Descending FlightAware ADS-B
Wed 06:21:50 PM 39.6799 -106.6622 259° West 154 177 10,900 -870 Descending FlightAware ADS-B
Wed 06:22:21 PM 39.6756 -106.6904 259° West 157 181 10,400 -1,082 Descending FlightAware ADS-B
Wed 06:22:51 PM 39.6716 -106.7175 259° West 162 186 9,800 -1,080 Descending FlightAware ADS-B
Wed 06:23:11 PM 39.6686 -106.7375 259° West 157 181 9,500 -769 Descending FlightAware ADS-B
Wed 06:23:30 PM 39.6658 -106.7555 257° West 156 180 9,300 -367 Descending FlightAware ADS-B
Wed 06:24:00 PM 39.6625 -106.7747 257° West 162 186 9,200 -857 Descending Denver Center
Wed 06:25:01 PM 39.6547 -106.8272 259° West 155 178 8,000 -1,016 Descending Denver Center
Wed 06:26:04 PM 39.6475 -106.8758 259° West 146 168 7,100 -857 Descending Denver Center

Login

Don't have an account? Register now (free) for customized features, flight alerts, and more!